»·PEaware :: SWA6367 KEUG-KSMX

SWA6367 :: KEUG-KSMX

FLIGHT INFORMATION

Flight Status: Arrived
Operator:
Southwest Airlines
More flights by this operator :: More flights under this callsign
Pilot: Christian L. (6360)
Aircraft: BOEING 737-800
(B738)
More flights by this aircraft type
Origin: KEUG Mahlon Sweet
United States
Destination: KSMX Santa Maria Pub/Capt Hancock
United States
More flights between these airports :: More routes between these airports
Route: EUG1 OED J1 RBL SNS MQO
File this flight plan on PilotEdge
Remarks:
Altitude:
(Current/Filed)
35,000ft
Speed:
(Current/Filed)
451kts
Departed: 08-Nov-19 10:05 AM
Arrived: 08-Nov-19 12:03 PM
Distance/Time
Traveled:
568nm/1:57
Distance/Time
To Go:
Arrived

Flight Plot

Page will automatically refresh every two minutes.

Flight plan parsing failed; only flown route is shown


Map Options




Map Legend


Flown Route
Filed Route
Departure Airport
Arrival Airport
Navaid (VOR, NDB)
Fix

Horizontal Profiles

Position Reports

Time Latitude Longitude Heading Altitude Ground
Speed
08-Nov-19 09:26 44.119453 -123.214277 33 377ft 0kts
08-Nov-19 09:27 44.119453 -123.214277 33 377ft 0kts
08-Nov-19 09:28 44.119453 -123.214277 33 377ft 0kts
08-Nov-19 09:29 44.119453 -123.214277 33 377ft 0kts
08-Nov-19 09:30 44.119453 -123.214277 33 377ft 0kts
08-Nov-19 09:31 44.119453 -123.214277 33 377ft 0kts
08-Nov-19 09:32 44.119453 -123.214277 33 377ft 0kts
08-Nov-19 09:33 44.119453 -123.214277 33 377ft 0kts
08-Nov-19 09:34 44.119453 -123.214277 33 377ft 0kts
08-Nov-19 09:35 44.119453 -123.214277 33 377ft 0kts
08-Nov-19 09:36 44.119453 -123.214277 33 377ft 0kts
08-Nov-19 09:37 44.119453 -123.214277 33 377ft 0kts
08-Nov-19 09:38 44.119453 -123.214277 33 377ft 0kts
08-Nov-19 09:39 44.119453 -123.214277 33 377ft 0kts
08-Nov-19 09:40 44.119453 -123.214277 33 377ft 0kts
08-Nov-19 09:41 44.119453 -123.214277 33 377ft 0kts
08-Nov-19 09:42 44.119453 -123.214277 33 377ft 0kts
08-Nov-19 09:43 44.119453 -123.214277 33 377ft 0kts
08-Nov-19 09:44 44.119453 -123.214277 33 377ft 0kts
08-Nov-19 09:45 44.119453 -123.214277 33 377ft 0kts
08-Nov-19 09:46 44.119453 -123.214277 33 377ft 0kts
08-Nov-19 09:47 44.119453 -123.214277 33 377ft 0kts
08-Nov-19 09:48 44.119454 -123.214276 33 377ft 0kts
08-Nov-19 09:49 44.119454 -123.214276 33 377ft 0kts
08-Nov-19 09:50 44.119457 -123.214274 33 377ft 0kts
08-Nov-19 09:51 44.119457 -123.214274 33 377ft 0kts
08-Nov-19 09:52 44.119457 -123.214274 33 377ft 0kts
08-Nov-19 09:53 44.119457 -123.214273 33 377ft 0kts
08-Nov-19 09:54 44.119404 -123.214265 301 377ft 1kts
08-Nov-19 09:55 44.119401 -123.213950 250 377ft 0kts
08-Nov-19 09:56 44.119401 -123.213950 250 377ft 0kts
08-Nov-19 09:57 44.119701 -123.216891 321 377ft 12kts
08-Nov-19 09:58 44.123786 -123.217184 359 377ft 18kts
08-Nov-19 09:59 44.130388 -123.217261 0 377ft 22kts
08-Nov-19 10:00 44.135409 -123.217841 275 377ft 11kts
08-Nov-19 10:01 44.135414 -123.218085 268 377ft 0kts
08-Nov-19 10:02 44.135413 -123.218113 267 377ft 0kts
08-Nov-19 10:03 44.135283 -123.219051 219 377ft 6kts
08-Nov-19 10:04 44.130766 -123.219085 178 377ft 81kts
08-Nov-19 10:05 44.088842 -123.216644 171 1512ft 169kts
08-Nov-19 10:06 44.046656 -123.215190 178 3715ft 157kts
08-Nov-19 10:07 43.992365 -123.212609 174 4685ft 233kts
08-Nov-19 10:08 43.923673 -123.198762 174 6810ft 265kts
08-Nov-19 10:09 43.848885 -123.183665 174 9559ft 278kts
08-Nov-19 10:10 43.768271 -123.167446 174 11572ft 321kts
08-Nov-19 10:11 43.672438 -123.148224 174 13376ft 361kts
08-Nov-19 10:12 43.571081 -123.127755 174 15938ft 374kts
08-Nov-19 10:13 43.466451 -123.106823 175 18318ft 387kts
08-Nov-19 10:14 43.358243 -123.085200 175 20545ft 398kts
08-Nov-19 10:15 43.247203 -123.063156 175 22545ft 408kts
08-Nov-19 10:17 43.133086 -123.040616 175 24310ft 418kts
08-Nov-19 10:18 43.016567 -123.017633 175 25839ft 429kts
08-Nov-19 10:19 42.896798 -122.994147 175 27232ft 440kts
08-Nov-19 10:20 42.774211 -122.970086 175 28494ft 449kts
08-Nov-19 10:21 42.649174 -122.945726 175 29652ft 458kts
08-Nov-19 10:22 42.523539 -122.921400 175 31158ft 455kts
08-Nov-19 10:23 42.399269 -122.889635 170 32632ft 453kts
08-Nov-19 10:24 42.276351 -122.853152 171 33979ft 450kts
08-Nov-19 10:25 42.154593 -122.817629 171 35182ft 448kts
08-Nov-19 10:26 42.031984 -122.781999 171 35369ft 446kts
08-Nov-19 10:27 41.911346 -122.747134 170 35391ft 445kts
08-Nov-19 10:28 41.790029 -122.711826 170 35403ft 444kts
08-Nov-19 10:29 41.669341 -122.677018 170 35402ft 445kts
08-Nov-19 10:30 41.548141 -122.642234 170 35397ft 444kts
08-Nov-19 10:31 41.427388 -122.607719 169 35388ft 444kts
08-Nov-19 10:32 41.306285 -122.573240 169 35384ft 444kts
08-Nov-19 10:42 41.141264 -122.526441 169 35372ft 444kts
08-Nov-19 10:43 41.020022 -122.492244 169 35366ft 444kts
08-Nov-19 10:44 40.899248 -122.458299 168 35359ft 444kts
08-Nov-19 10:45 40.778422 -122.424450 168 35343ft 444kts
08-Nov-19 10:46 40.657661 -122.390750 168 35317ft 443kts
08-Nov-19 10:47 40.537154 -122.357244 168 35295ft 443kts
08-Nov-19 10:48 40.416508 -122.323819 167 35292ft 443kts
08-Nov-19 10:49 40.295573 -122.290344 167 35297ft 443kts
08-Nov-19 10:50 40.175108 -122.257280 167 35299ft 442kts
08-Nov-19 10:51 40.054117 -122.226346 171 35301ft 443kts
08-Nov-19 10:52 39.932141 -122.203991 170 35305ft 443kts
08-Nov-19 10:53 39.810252 -122.180909 170 35309ft 443kts
08-Nov-19 10:54 39.688260 -122.157507 170 35305ft 442kts
08-Nov-19 10:55 39.566061 -122.134150 170 35304ft 443kts
08-Nov-19 11:10 39.375830 -122.097981 170 35290ft 443kts
08-Nov-19 11:11 39.253681 -122.074887 170 35287ft 443kts
08-Nov-19 11:12 39.131369 -122.051838 170 35285ft 443kts
08-Nov-19 11:13 39.009553 -122.028962 169 35279ft 443kts
08-Nov-19 11:14 38.887263 -122.006079 169 35281ft 443kts
08-Nov-19 11:15 38.765200 -121.983319 168 35282ft 444kts
08-Nov-19 11:16 38.642998 -121.960603 168 35279ft 444kts
08-Nov-19 11:17 38.520763 -121.937963 168 35279ft 443kts
08-Nov-19 11:18 38.399112 -121.915497 167 35277ft 434kts
08-Nov-19 11:19 38.280961 -121.894519 167 35828ft 430kts
08-Nov-19 11:20 38.161905 -121.871228 168 34983ft 418kts
08-Nov-19 11:21 38.051061 -121.851540 167 34529ft 403kts
08-Nov-19 11:22 37.933443 -121.830231 167 33544ft 447kts
08-Nov-19 11:23 37.810923 -121.807998 167 32541ft 439kts
08-Nov-19 11:24 37.690636 -121.786234 167 31540ft 434kts
08-Nov-19 11:25 37.571831 -121.764794 167 30539ft 429kts
08-Nov-19 11:26 37.454317 -121.743660 167 29538ft 423kts
08-Nov-19 11:27 37.338048 -121.722814 167 29241ft 422kts
08-Nov-19 11:28 37.221718 -121.702029 167 29237ft 422kts
08-Nov-19 11:29 37.105360 -121.681301 167 29228ft 422kts
08-Nov-19 11:30 36.988860 -121.660610 167 29222ft 422kts
08-Nov-19 11:31 36.872207 -121.639895 167 29218ft 423kts
08-Nov-19 11:32 36.756264 -121.619458 167 28659ft 421kts
08-Nov-19 11:33 36.643624 -121.589061 152 27989ft 408kts
08-Nov-19 11:34 36.541265 -121.528697 149 28021ft 407kts
08-Nov-19 11:35 36.439890 -121.467413 149 27141ft 401kts
08-Nov-19 11:36 36.341250 -121.407785 149 25465ft 390kts
08-Nov-19 11:37 36.251533 -121.353403 149 23867ft 385kts
08-Nov-19 11:38 36.155898 -121.295787 150 22149ft 378kts
08-Nov-19 11:39 36.061865 -121.239429 151 20318ft 377kts
08-Nov-19 11:40 35.968251 -121.183384 151 18737ft 355kts
08-Nov-19 11:41 35.887380 -121.135090 152 17149ft 347kts
08-Nov-19 11:42 35.801295 -121.083814 152 15413ft 340kts
08-Nov-19 11:43 35.720207 -121.035599 152 14644ft 310kts
08-Nov-19 11:44 35.642862 -120.989764 152 13565ft 305kts
08-Nov-19 11:45 35.566934 -120.944818 152 12362ft 301kts
08-Nov-19 11:46 35.498597 -120.904272 153 11333ft 297kts
08-Nov-19 11:47 35.424799 -120.860792 153 10179ft 291kts
08-Nov-19 11:48 35.352790 -120.818518 154 9039ft 284kts
08-Nov-19 11:49 35.282236 -120.777169 154 7851ft 279kts
08-Nov-19 11:50 35.213046 -120.736397 151 6682ft 272kts
08-Nov-19 11:51 35.155006 -120.689015 143 5554ft 268kts
08-Nov-19 11:52 35.095696 -120.636118 143 4931ft 250kts
08-Nov-19 11:53 35.048038 -120.593863 143 4498ft 219kts
08-Nov-19 11:54 35.003684 -120.554603 143 3944ft 186kts
08-Nov-19 11:55 34.970458 -120.517840 124 3977ft 177kts
08-Nov-19 11:56 34.944648 -120.470511 123 3279ft 174kts
08-Nov-19 11:57 34.917743 -120.421369 123 1785ft 173kts
08-Nov-19 11:58 34.892079 -120.375451 123 1474ft 162kts
08-Nov-19 11:59 34.856408 -120.361405 232 1458ft 161kts
08-Nov-19 12:00 34.863945 -120.410309 306 1153ft 154kts
08-Nov-19 12:01 34.893136 -120.446261 312 303ft 145kts
08-Nov-19 12:02 34.903236 -120.456976 48 269ft 13kts
08-Nov-19 12:03 34.903314 -120.456875 46 269ft 0kts
08-Nov-19 12:04 34.902309 -120.454751 135 269ft 16kts
08-Nov-19 12:05 34.899863 -120.451670 81 269ft 5kts
08-Nov-19 12:06 34.899908 -120.450695 132 269ft 0kts
08-Nov-19 12:07 34.899908 -120.450695 132 269ft 0kts
08-Nov-19 12:08 34.899908 -120.450695 132 269ft 0kts
08-Nov-19 12:09 34.899908 -120.450695 132 269ft 0kts
08-Nov-19 12:10 34.899908 -120.450695 132 269ft 0kts
08-Nov-19 12:11 34.899908 -120.450695 132 269ft 0kts
08-Nov-19 12:12 34.899908 -120.450695 132 269ft 0kts
08-Nov-19 12:13 34.899908 -120.450695 132 269ft 0kts
08-Nov-19 12:14 34.899908 -120.450695 132 269ft 0kts
08-Nov-19 12:15 34.899908 -120.450695 132 269ft 0kts
08-Nov-19 12:16 34.899908 -120.450695 132 269ft 0kts

Navigation Log

Ident Type
Flight plan parsing failed, navigation log unavailable